sensor_id;sensor_type;location;lat;lon;timestamp;pressure;altitude;pressure_sealevel;temperature;humidity
51417;BME280;50158;51.528;6.982;2022-12-07T00:01:44;66840;;;4.28;100
51417;BME280;50158;51.528;6.982;2022-12-07T00:04:13;66830;;;4.26;100
51417;BME280;50158;51.528;6.982;2022-12-07T00:06:41;66840;;;4.3;100
51417;BME280;50158;51.528;6.982;2022-12-07T00:09:10;66830;;;4.25;100
51417;BME280;50158;51.528;6.982;2022-12-07T00:11:37;66830;;;4.28;100
51417;BME280;50158;51.528;6.982;2022-12-07T00:16:03;66850;;;4.42;100
51417;BME280;50158;51.528;6.982;2022-12-07T00:18:29;66850;;;4.41;100
51417;BME280;50158;51.528;6.982;2022-12-07T00:21:01;66850;;;4.42;100
51417;BME280;50158;51.528;6.982;2022-12-07T00:23:26;66850;;;4.44;100
51417;BME280;50158;51.528;6.982;2022-12-07T00:25:54;66850;;;4.44;100
51417;BME280;50158;51.528;6.982;2022-12-07T00:28:22;66850;;;4.44;100
51417;BME280;50158;51.528;6.982;2022-12-07T00:30:50;66850;;;4.46;100
51417;BME280;50158;51.528;6.982;2022-12-07T00:33:19;66850;;;4.44;100
51417;BME280;50158;51.528;6.982;2022-12-07T00:35:54;66850;;;4.42;100
51417;BME280;50158;51.528;6.982;2022-12-07T00:41:01;66850;;;4.46;100
51417;BME280;50158;51.528;6.982;2022-12-07T00:43:28;66850;;;4.44;100
51417;BME280;50158;51.528;6.982;2022-12-07T00:45:57;66860;;;4.54;100
51417;BME280;50158;51.528;6.982;2022-12-07T00:48:25;66860;;;4.46;100
51417;BME280;50158;51.528;6.982;2022-12-07T00:50:53;66850;;;4.46;100
51417;BME280;50158;51.528;6.982;2022-12-07T00:53:21;66860;;;4.5;100
51417;BME280;50158;51.528;6.982;2022-12-07T00:55:50;66850;;;4.46;100
51417;BME280;50158;51.528;6.982;2022-12-07T00:58:18;66850;;;4.44;100
51417;BME280;50158;51.528;6.982;2022-12-07T01:00:46;66860;;;4.51;100
51417;BME280;50158;51.528;6.982;2022-12-07T01:03:15;66860;;;4.54;100
51417;BME280;50158;51.528;6.982;2022-12-07T01:05:58;66860;;;4.52;100
51417;BME280;50158;51.528;6.982;2022-12-07T01:08:11;66860;;;4.48;100
51417;BME280;50158;51.528;6.982;2022-12-07T01:10:39;66860;;;4.56;100
51417;BME280;50158;51.528;6.982;2022-12-07T01:17:31;66860;;;4.52;100
51417;BME280;50158;51.528;6.982;2022-12-07T01:20:00;66860;;;4.48;100
51417;BME280;50158;51.528;6.982;2022-12-07T01:22:28;66860;;;4.53;100
51417;BME280;50158;51.528;6.982;2022-12-07T01:24:56;66860;;;4.48;100
51417;BME280;50158;51.528;6.982;2022-12-07T01:27:24;66850;;;4.46;100
51417;BME280;50158;51.528;6.982;2022-12-07T01:29:53;66850;;;4.4;100
51417;BME280;50158;51.528;6.982;2022-12-07T01:32:21;66850;;;4.42;100
51417;BME280;50158;51.528;6.982;2022-12-07T01:34:49;66860;;;4.46;100
51417;BME280;50158;51.528;6.982;2022-12-07T01:37:17;66850;;;4.39;100
51417;BME280;50158;51.528;6.982;2022-12-07T01:39:48;66840;;;4.37;100
51417;BME280;50158;51.528;6.982;2022-12-07T01:45:46;66840;;;4.31;100
51417;BME280;50158;51.528;6.982;2022-12-07T01:47:11;66840;;;4.31;100
51417;BME280;50158;51.528;6.982;2022-12-07T01:49:41;66840;;;4.3;100
51417;BME280;50158;51.528;6.982;2022-12-07T01:52:10;66830;;;4.25;100
51417;BME280;50158;51.528;6.982;2022-12-07T01:54:35;66830;;;4.23;100
51417;BME280;50158;51.528;6.982;2022-12-07T01:57:04;66830;;;4.23;100
51417;BME280;50158;51.528;6.982;2022-12-07T01:59:32;66830;;;4.21;100
51417;BME280;50158;51.528;6.982;2022-12-07T02:02:00;66820;;;4.17;100
51417;BME280;50158;51.528;6.982;2022-12-07T02:04:28;66830;;;4.21;100
51417;BME280;50158;51.528;6.982;2022-12-07T02:06:57;66820;;;4.15;100
51417;BME280;50158;51.528;6.982;2022-12-07T02:09:25;66830;;;4.19;100
51417;BME280;50158;51.528;6.982;2022-12-07T02:11:53;66820;;;4.14;100
51417;BME280;50158;51.528;6.982;2022-12-07T02:14:22;66810;;;4.07;100
51417;BME280;50158;51.528;6.982;2022-12-07T02:18:49;66820;;;4.11;100
51417;BME280;50158;51.528;6.982;2022-12-07T02:21:17;66810;;;4.05;100
51417;BME280;50158;51.528;6.982;2022-12-07T02:24:03;66820;;;4.1;100
51417;BME280;50158;51.528;6.982;2022-12-07T02:28:56;66800;;;3.97;100
51417;BME280;50158;51.528;6.982;2022-12-07T02:31:08;66800;;;3.99;100
51417;BME280;50158;51.528;6.982;2022-12-07T02:33:37;66800;;;3.93;100
51417;BME280;50158;51.528;6.982;2022-12-07T02:36:06;66790;;;3.89;100
51417;BME280;50158;51.528;6.982;2022-12-07T02:38:37;66790;;;3.84;100
51417;BME280;50158;51.528;6.982;2022-12-07T02:41:01;66790;;;3.83;100
51417;BME280;50158;51.528;6.982;2022-12-07T02:43:30;66790;;;3.84;100
51417;BME280;50158;51.528;6.982;2022-12-07T02:45:59;66780;;;3.82;100
51417;BME280;50158;51.528;6.982;2022-12-07T02:48:25;66780;;;3.76;100
51417;BME280;50158;51.528;6.982;2022-12-07T02:50:53;66780;;;3.73;100
51417;BME280;50158;51.528;6.982;2022-12-07T02:53:53;66770;;;3.65;100
51417;BME280;50158;51.528;6.982;2022-12-07T02:55:50;66770;;;3.64;100
51417;BME280;50158;51.528;6.982;2022-12-07T02:58:23;66770;;;3.65;100
51417;BME280;50158;51.528;6.982;2022-12-07T03:00:52;66760;;;3.56;100
51417;BME280;50158;51.528;6.982;2022-12-07T03:03:14;66750;;;3.52;100
51417;BME280;50158;51.528;6.982;2022-12-07T03:05:49;66750;;;3.46;100
51417;BME280;50158;51.528;6.982;2022-12-07T03:10:58;66730;;;3.31;100
51417;BME280;50158;51.528;6.982;2022-12-07T03:15:22;66730;;;3.28;100
51417;BME280;50158;51.528;6.982;2022-12-07T03:17:48;66720;;;3.22;100
51417;BME280;50158;51.528;6.982;2022-12-07T03:20:17;66710;;;3.15;100
51417;BME280;50158;51.528;6.982;2022-12-07T03:22:44;66710;;;3.12;100
51417;BME280;50158;51.528;6.982;2022-12-07T03:25:13;66700;;;3.06;100
51417;BME280;50158;51.528;6.982;2022-12-07T03:27:44;66700;;;3;100
51417;BME280;50158;51.528;6.982;2022-12-07T03:30:10;66690;;;2.96;100
51417;BME280;50158;51.528;6.982;2022-12-07T03:32:40;66680;;;2.87;100
51417;BME280;50158;51.528;6.982;2022-12-07T03:35:22;66680;;;2.82;100
51417;BME280;50158;51.528;6.982;2022-12-07T03:37:36;66680;;;2.82;100
51417;BME280;50158;51.528;6.982;2022-12-07T03:40:06;66690;;;2.9;100
51417;BME280;50158;51.528;6.982;2022-12-07T03:42:30;66700;;;2.98;100
51417;BME280;50158;51.528;6.982;2022-12-07T03:44:59;66690;;;2.95;100
51417;BME280;50158;51.528;6.982;2022-12-07T03:47:45;66690;;;2.93;100
51417;BME280;50158;51.528;6.982;2022-12-07T03:49:59;66700;;;3;100
51417;BME280;50158;51.528;6.982;2022-12-07T03:52:25;66700;;;2.99;100
51417;BME280;50158;51.528;6.982;2022-12-07T03:55:00;66700;;;3.04;100
51417;BME280;50158;51.528;6.982;2022-12-07T03:57:20;66700;;;3.03;100
51417;BME280;50158;51.528;6.982;2022-12-07T03:59:48;66690;;;2.97;100
51417;BME280;50158;51.528;6.982;2022-12-07T04:02:17;66690;;;2.92;100
51417;BME280;50158;51.528;6.982;2022-12-07T04:04:45;66690;;;2.88;100
51417;BME280;50158;51.528;6.982;2022-12-07T04:07:13;66680;;;2.87;100
51417;BME280;50158;51.528;6.982;2022-12-07T04:09:41;66680;;;2.86;100
51417;BME280;50158;51.528;6.982;2022-12-07T04:12:10;66680;;;2.89;100
51417;BME280;50158;51.528;6.982;2022-12-07T04:14:39;66690;;;2.9;100
51417;BME280;50158;51.528;6.982;2022-12-07T04:17:06;66690;;;2.95;100
51417;BME280;50158;51.528;6.982;2022-12-07T04:21:30;66690;;;2.98;100
51417;BME280;50158;51.528;6.982;2022-12-07T04:23:58;66700;;;3;100
51417;BME280;50158;51.528;6.982;2022-12-07T04:26:27;66700;;;2.99;100
51417;BME280;50158;51.528;6.982;2022-12-07T04:28:55;66690;;;2.93;100
51417;BME280;50158;51.528;6.982;2022-12-07T04:31:23;66690;;;2.9;100
51417;BME280;50158;51.528;6.982;2022-12-07T04:33:51;66680;;;2.83;100
51417;BME280;50158;51.528;6.982;2022-12-07T04:36:20;66670;;;2.78;100
51417;BME280;50158;51.528;6.982;2022-12-07T04:38:48;66660;;;2.69;100
51417;BME280;50158;51.528;6.982;2022-12-07T04:41:16;66660;;;2.64;100
51417;BME280;50158;51.528;6.982;2022-12-07T04:43:44;66660;;;2.67;100
51417;BME280;50158;51.528;6.982;2022-12-07T04:46:13;66650;;;2.59;100
51417;BME280;50158;51.528;6.982;2022-12-07T04:48:41;66650;;;2.58;100
51417;BME280;50158;51.528;6.982;2022-12-07T04:51:09;66650;;;2.54;100
51417;BME280;50158;51.528;6.982;2022-12-07T04:53:38;66650;;;2.55;100
51417;BME280;50158;51.528;6.982;2022-12-07T04:58:34;66650;;;2.53;100
51417;BME280;50158;51.528;6.982;2022-12-07T05:01:02;66650;;;2.52;100
51417;BME280;50158;51.528;6.982;2022-12-07T05:03:31;66650;;;2.54;100
51417;BME280;50158;51.528;6.982;2022-12-07T05:05:59;66650;;;2.56;100
51417;BME280;50158;51.528;6.982;2022-12-07T05:08:27;66660;;;2.61;100
51417;BME280;50158;51.528;6.982;2022-12-07T05:10:56;66660;;;2.67;100
51417;BME280;50158;51.528;6.982;2022-12-07T05:13:24;66650;;;2.58;100
51417;BME280;50158;51.528;6.982;2022-12-07T05:15:52;66660;;;2.7;100
51417;BME280;50158;51.528;6.982;2022-12-07T05:18:20;66660;;;2.69;100
51417;BME280;50158;51.528;6.982;2022-12-07T05:20:49;66670;;;2.71;100
51417;BME280;50158;51.528;6.982;2022-12-07T05:23:17;66660;;;2.67;100
51417;BME280;50158;51.528;6.982;2022-12-07T05:25:46;66660;;;2.7;100
51417;BME280;50158;51.528;6.982;2022-12-07T05:30:09;66670;;;2.74;100
51417;BME280;50158;51.528;6.982;2022-12-07T05:32:37;66670;;;2.77;100
51417;BME280;50158;51.528;6.982;2022-12-07T05:35:06;66670;;;2.77;100
51417;BME280;50158;51.528;6.982;2022-12-07T05:40:18;66670;;;2.77;100
51417;BME280;50158;51.528;6.982;2022-12-07T05:42:47;66670;;;2.77;100
51417;BME280;50158;51.528;6.982;2022-12-07T05:45:16;66670;;;2.76;100
51417;BME280;50158;51.528;6.982;2022-12-07T05:47:43;66680;;;2.82;100
51417;BME280;50158;51.528;6.982;2022-12-07T05:50:12;66680;;;2.81;100
51417;BME280;50158;51.528;6.982;2022-12-07T05:52:40;66690;;;2.9;100
51417;BME280;50158;51.528;6.982;2022-12-07T05:55:08;66680;;;2.88;100
51417;BME280;50158;51.528;6.982;2022-12-07T05:57:36;66680;;;2.86;100
51417;BME280;50158;51.528;6.982;2022-12-07T06:00:05;66680;;;2.85;100
51417;BME280;50158;51.528;6.982;2022-12-07T06:02:33;66680;;;2.79;100
51417;BME280;50158;51.528;6.982;2022-12-07T06:05:01;66680;;;2.82;100
51417;BME280;50158;51.528;6.982;2022-12-07T06:07:29;66670;;;2.77;100
51417;BME280;50158;51.528;6.982;2022-12-07T06:09:58;66670;;;2.73;100
51417;BME280;50158;51.528;6.982;2022-12-07T06:12:26;66670;;;2.78;100
51417;BME280;50158;51.528;6.982;2022-12-07T06:14:54;66680;;;2.8;100
51417;BME280;50158;51.528;6.982;2022-12-07T06:17:23;66670;;;2.79;100
51417;BME280;50158;51.528;6.982;2022-12-07T06:19:51;66690;;;2.98;100
51417;BME280;50158;51.528;6.982;2022-12-07T06:22:19;66690;;;2.93;100
51417;BME280;50158;51.528;6.982;2022-12-07T06:24:47;66680;;;2.87;100
51417;BME280;50158;51.528;6.982;2022-12-07T06:27:16;66690;;;2.89;100
51417;BME280;50158;51.528;6.982;2022-12-07T06:29:44;66680;;;2.87;100
51417;BME280;50158;51.528;6.982;2022-12-07T06:32:12;66680;;;2.89;100
51417;BME280;50158;51.528;6.982;2022-12-07T06:36:36;66680;;;2.87;100
51417;BME280;50158;51.528;6.982;2022-12-07T06:39:05;66680;;;2.8;100
51417;BME280;50158;51.528;6.982;2022-12-07T06:41:33;66680;;;2.88;100
51417;BME280;50158;51.528;6.982;2022-12-07T06:44:01;66680;;;2.86;100
51417;BME280;50158;51.528;6.982;2022-12-07T06:46:29;66680;;;2.88;100
51417;BME280;50158;51.528;6.982;2022-12-07T06:48:57;66680;;;2.85;100
51417;BME280;50158;51.528;6.982;2022-12-07T06:51:26;66670;;;2.77;100
51417;BME280;50158;51.528;6.982;2022-12-07T06:53:54;66670;;;2.77;100
51417;BME280;50158;51.528;6.982;2022-12-07T06:56:22;66670;;;2.74;100
51417;BME280;50158;51.528;6.982;2022-12-07T06:58:50;66660;;;2.65;100
51417;BME280;50158;51.528;6.982;2022-12-07T07:01:19;66650;;;2.59;100
51417;BME280;50158;51.528;6.982;2022-12-07T07:03:47;66650;;;2.54;100
51417;BME280;50158;51.528;6.982;2022-12-07T07:06:15;66650;;;2.58;100
51417;BME280;50158;51.528;6.982;2022-12-07T07:08:44;66650;;;2.52;100
51417;BME280;50158;51.528;6.982;2022-12-07T07:11:12;66650;;;2.55;100
51417;BME280;50158;51.528;6.982;2022-12-07T07:13:40;66650;;;2.56;100
51417;BME280;50158;51.528;6.982;2022-12-07T07:16:08;66650;;;2.51;100
51417;BME280;50158;51.528;6.982;2022-12-07T07:18:37;66640;;;2.48;100
51417;BME280;50158;51.528;6.982;2022-12-07T07:21:05;66640;;;2.51;100
51417;BME280;50158;51.528;6.982;2022-12-07T07:23:33;66630;;;2.4;100
51417;BME280;50158;51.528;6.982;2022-12-07T07:26:02;66630;;;2.35;100
51417;BME280;50158;51.528;6.982;2022-12-07T07:28:30;66630;;;2.39;100
51417;BME280;50158;51.528;6.982;2022-12-07T07:32:57;66640;;;2.46;100
51417;BME280;50158;51.528;6.982;2022-12-07T07:35:22;66640;;;2.48;100
51417;BME280;50158;51.528;6.982;2022-12-07T07:37:50;66650;;;2.54;100
51417;BME280;50158;51.528;6.982;2022-12-07T07:40:18;66650;;;2.57;100
51417;BME280;50158;51.528;6.982;2022-12-07T07:42:47;66660;;;2.69;100
51417;BME280;50158;51.528;6.982;2022-12-07T07:45:15;66670;;;2.75;100
51417;BME280;50158;51.528;6.982;2022-12-07T07:47:43;66680;;;2.85;100
51417;BME280;50158;51.528;6.982;2022-12-07T07:50:11;66690;;;2.9;100
51417;BME280;50158;51.528;6.982;2022-12-07T07:52:40;66690;;;2.96;100
51417;BME280;50158;51.528;6.982;2022-12-07T07:55:08;66680;;;2.89;100
51417;BME280;50158;51.528;6.982;2022-12-07T07:57:37;66690;;;2.93;100
51417;BME280;50158;51.528;6.982;2022-12-07T08:00:06;66690;;;2.93;100
51417;BME280;50158;51.528;6.982;2022-12-07T08:02:33;66680;;;2.89;100
51417;BME280;50158;51.528;6.982;2022-12-07T08:05:01;66690;;;2.93;100
51417;BME280;50158;51.528;6.982;2022-12-07T08:10:14;66700;;;3.06;100
51417;BME280;50158;51.528;6.982;2022-12-07T08:12:43;66710;;;3.1;100
51417;BME280;50158;51.528;6.982;2022-12-07T08:15:11;66720;;;3.2;100
51417;BME280;50158;51.528;6.982;2022-12-07T08:17:39;66720;;;3.25;100
51417;BME280;50158;51.528;6.982;2022-12-07T08:20:07;66730;;;3.29;100
51417;BME280;50158;51.528;6.982;2022-12-07T08:22:35;66730;;;3.31;100
51417;BME280;50158;51.528;6.982;2022-12-07T08:25:04;66740;;;3.42;100
51417;BME280;50158;51.528;6.982;2022-12-07T08:27:32;66750;;;3.45;100
51417;BME280;50158;51.528;6.982;2022-12-07T08:30:00;66740;;;3.38;100
51417;BME280;50158;51.528;6.982;2022-12-07T08:34:24;66750;;;3.5;100
51417;BME280;50158;51.528;6.982;2022-12-07T08:36:52;66760;;;3.59;100
51417;BME280;50158;51.528;6.982;2022-12-07T08:39:21;66740;;;3.45;100
51417;BME280;50158;51.528;6.982;2022-12-07T08:41:49;66750;;;3.45;100
51417;BME280;50158;51.528;6.982;2022-12-07T08:44:17;66740;;;3.43;100
51417;BME280;50158;51.528;6.982;2022-12-07T08:46:46;66730;;;3.3;100
51417;BME280;50158;51.528;6.982;2022-12-07T08:49:16;66740;;;3.39;100
51417;BME280;50158;51.528;6.982;2022-12-07T08:51:42;66730;;;3.3;100
51417;BME280;50158;51.528;6.982;2022-12-07T08:54:11;66740;;;3.38;100
51417;BME280;50158;51.528;6.982;2022-12-07T08:56:39;66730;;;3.29;100
51417;BME280;50158;51.528;6.982;2022-12-07T08:59:07;66740;;;3.37;100
51417;BME280;50158;51.528;6.982;2022-12-07T09:01:35;66740;;;3.42;100
51417;BME280;50158;51.528;6.982;2022-12-07T09:04:03;66750;;;3.47;100
51417;BME280;50158;51.528;6.982;2022-12-07T09:06:32;66740;;;3.36;100
51417;BME280;50158;51.528;6.982;2022-12-07T09:09:00;66740;;;3.39;100
51417;BME280;50158;51.528;6.982;2022-12-07T09:11:28;66750;;;3.47;100
51417;BME280;50158;51.528;6.982;2022-12-07T09:13:56;66750;;;3.5;100
51417;BME280;50158;51.528;6.982;2022-12-07T09:16:25;66760;;;3.55;100
51417;BME280;50158;51.528;6.982;2022-12-07T09:18:53;66780;;;3.76;100
51417;BME280;50158;51.528;6.982;2022-12-07T09:21:21;66790;;;3.9;100
51417;BME280;50158;51.528;6.982;2022-12-07T09:23:50;66800;;;3.98;100
51417;BME280;50158;51.528;6.982;2022-12-07T09:26:18;66790;;;3.87;100
51417;BME280;50158;51.528;6.982;2022-12-07T09:28:46;66780;;;3.75;100
51417;BME280;50158;51.528;6.982;2022-12-07T09:31:14;66780;;;3.77;100
51417;BME280;50158;51.528;6.982;2022-12-07T09:35:43;66780;;;3.79;100
51417;BME280;50158;51.528;6.982;2022-12-07T09:38:06;66800;;;4;100
51417;BME280;50158;51.528;6.982;2022-12-07T09:40:35;66810;;;4.05;100
51417;BME280;50158;51.528;6.982;2022-12-07T09:43:03;66820;;;4.12;100
51417;BME280;50158;51.528;6.982;2022-12-07T09:45:33;66840;;;4.3;100
51417;BME280;50158;51.528;6.982;2022-12-07T09:48:00;66840;;;4.35;100
51417;BME280;50158;51.528;6.982;2022-12-07T09:50:28;66860;;;4.48;100
51417;BME280;50158;51.528;6.982;2022-12-07T09:53:14;66860;;;4.52;100
51417;BME280;50158;51.528;6.982;2022-12-07T09:55:26;66870;;;4.62;100
51417;BME280;50158;51.528;6.982;2022-12-07T09:57:53;66860;;;4.53;100
51417;BME280;50158;51.528;6.982;2022-12-07T10:00:22;66860;;;4.46;100
51417;BME280;50158;51.528;6.982;2022-12-07T10:02:51;66860;;;4.48;100
51417;BME280;50158;51.528;6.982;2022-12-07T10:05:20;66860;;;4.53;100
51417;BME280;50158;51.528;6.982;2022-12-07T10:07:46;66860;;;4.46;100
51417;BME280;50158;51.528;6.982;2022-12-07T10:10:15;66850;;;4.41;100
51417;BME280;50158;51.528;6.982;2022-12-07T10:12:59;66850;;;4.42;100
51417;BME280;50158;51.528;6.982;2022-12-07T10:15:11;66860;;;4.48;100
51417;BME280;50158;51.528;6.982;2022-12-07T10:17:40;66870;;;4.57;100
51417;BME280;50158;51.528;6.982;2022-12-07T10:20:10;66890;;;4.76;100
51417;BME280;50158;51.528;6.982;2022-12-07T10:22:35;66890;;;4.78;100
51417;BME280;50158;51.528;6.982;2022-12-07T10:25:07;66890;;;4.73;100
51417;BME280;50158;51.528;6.982;2022-12-07T10:27:32;66890;;;4.79;100
51417;BME280;50158;51.528;6.982;2022-12-07T10:30:01;66900;;;4.91;100
51417;BME280;50158;51.528;6.982;2022-12-07T10:32:31;66910;;;5.01;100
51417;BME280;50158;51.528;6.982;2022-12-07T10:39:41;66900;;;4.89;100
51417;BME280;50158;51.528;6.982;2022-12-07T10:42:14;66880;;;4.69;100
51417;BME280;50158;51.528;6.982;2022-12-07T10:44:34;66870;;;4.59;100
51417;BME280;50158;51.528;6.982;2022-12-07T10:48:10;66890;;;4.79;100
51417;BME280;50158;51.528;6.982;2022-12-07T10:49:42;66870;;;4.65;100
51417;BME280;50158;51.528;6.982;2022-12-07T10:52:01;66890;;;4.73;100
51417;BME280;50158;51.528;6.982;2022-12-07T10:54:31;66910;;;4.96;100
51417;BME280;50158;51.528;6.982;2022-12-07T10:57:02;66910;;;5;100
51417;BME280;50158;51.528;6.982;2022-12-07T10:59:29;66920;;;5.11;100
51417;BME280;50158;51.528;6.982;2022-12-07T11:02:09;66940;;;5.25;100
51417;BME280;50158;51.528;6.982;2022-12-07T11:04:29;66950;;;5.34;100
51417;BME280;50158;51.528;6.982;2022-12-07T11:11:47;66940;;;5.21;100
51417;BME280;50158;51.528;6.982;2022-12-07T11:14:23;66930;;;5.12;100
51417;BME280;50158;51.528;6.982;2022-12-07T11:16:59;66920;;;5.08;100
51417;BME280;50158;51.528;6.982;2022-12-07T11:19:16;66920;;;5.04;100
51417;BME280;50158;51.528;6.982;2022-12-07T11:21:42;66910;;;5;100
51417;BME280;50158;51.528;6.982;2022-12-07T11:24:09;66910;;;5.03;100
51417;BME280;50158;51.528;6.982;2022-12-07T11:26:54;66940;;;5.23;100
51417;BME280;50158;51.528;6.982;2022-12-07T11:29:40;66950;;;5.32;100
51417;BME280;50158;51.528;6.982;2022-12-07T11:31:37;66980;;;5.66;100
51417;BME280;50158;51.528;6.982;2022-12-07T11:34:04;66980;;;5.61;100
51417;BME280;50158;51.528;6.982;2022-12-07T11:38:26;67010;;;5.93;100
51417;BME280;50158;51.528;6.982;2022-12-07T11:40:53;67030;;;6.09;100
51417;BME280;50158;51.528;6.982;2022-12-07T11:43:27;67010;;;5.94;100
51417;BME280;50158;51.528;6.982;2022-12-07T11:45:52;67010;;;5.91;100
51417;BME280;50158;51.528;6.982;2022-12-07T11:48:19;67010;;;5.93;100
51417;BME280;50158;51.528;6.982;2022-12-07T11:50:46;67000;;;5.86;100
51417;BME280;50158;51.528;6.982;2022-12-07T11:53:16;67010;;;5.9;100
51417;BME280;50158;51.528;6.982;2022-12-07T11:55:43;66970;;;5.57;100
51417;BME280;50158;51.528;6.982;2022-12-07T11:58:20;66980;;;5.64;100
51417;BME280;50158;51.528;6.982;2022-12-07T12:00:37;66970;;;5.58;100
51417;BME280;50158;51.528;6.982;2022-12-07T12:03:09;66990;;;5.75;100
51417;BME280;50158;51.528;6.982;2022-12-07T12:05:34;67010;;;5.9;100
51417;BME280;50158;51.528;6.982;2022-12-07T12:08:20;67000;;;5.82;100
51417;BME280;50158;51.528;6.982;2022-12-07T12:10:37;66990;;;5.75;100
51417;BME280;50158;51.528;6.982;2022-12-07T12:13:03;67000;;;5.85;100
51417;BME280;50158;51.528;6.982;2022-12-07T12:15:32;67010;;;5.87;100
51417;BME280;50158;51.528;6.982;2022-12-07T12:18:07;67010;;;5.92;100
51417;BME280;50158;51.528;6.982;2022-12-07T12:20:32;67010;;;5.91;100
51417;BME280;50158;51.528;6.982;2022-12-07T12:22:58;67010;;;5.9;100
51417;BME280;50158;51.528;6.982;2022-12-07T12:25:21;67000;;;5.84;100
51417;BME280;50158;51.528;6.982;2022-12-07T12:27:48;67000;;;5.86;100
51417;BME280;50158;51.528;6.982;2022-12-07T12:30:34;67010;;;5.86;100
51417;BME280;50158;51.528;6.982;2022-12-07T12:32:45;66990;;;5.75;100
51417;BME280;50158;51.528;6.982;2022-12-07T12:35:45;66990;;;5.76;100
51417;BME280;50158;51.528;6.982;2022-12-07T12:39:37;67000;;;5.81;100
51417;BME280;50158;51.528;6.982;2022-12-07T12:42:05;66990;;;5.76;100
51417;BME280;50158;51.528;6.982;2022-12-07T12:44:38;67020;;;5.96;100
51417;BME280;50158;51.528;6.982;2022-12-07T12:47:02;67010;;;5.95;100
51417;BME280;50158;51.528;6.982;2022-12-07T12:49:32;67040;;;6.16;100
51417;BME280;50158;51.528;6.982;2022-12-07T12:52:00;67040;;;6.16;100
51417;BME280;50158;51.528;6.982;2022-12-07T12:54:28;67070;;;6.49;100
51417;BME280;50158;51.528;6.982;2022-12-07T12:57:27;67060;;;6.4;100
51417;BME280;50158;51.528;6.982;2022-12-07T12:59:28;67060;;;6.38;100
51417;BME280;50158;51.528;6.982;2022-12-07T13:02:58;67030;;;6.11;100
51417;BME280;50158;51.528;6.982;2022-12-07T13:04:28;67020;;;5.96;100
51417;BME280;50158;51.528;6.982;2022-12-07T13:09:33;67000;;;5.84;100
51417;BME280;50158;51.528;6.982;2022-12-07T13:12:02;67020;;;6;100
51417;BME280;50158;51.528;6.982;2022-12-07T13:14:42;67020;;;6;100
51417;BME280;50158;51.528;6.982;2022-12-07T13:16:57;67030;;;6.12;100
51417;BME280;50158;51.528;6.982;2022-12-07T13:19:52;67020;;;6;100
51417;BME280;50158;51.528;6.982;2022-12-07T13:21:54;67020;;;5.98;100
51417;BME280;50158;51.528;6.982;2022-12-07T13:24:22;67010;;;5.92;100
51417;BME280;50158;51.528;6.982;2022-12-07T13:26:51;67020;;;6.03;100
51417;BME280;50158;51.528;6.982;2022-12-07T13:29:19;67020;;;6.01;100
51417;BME280;50158;51.528;6.982;2022-12-07T13:31:48;67030;;;6.08;100
51417;BME280;50158;51.528;6.982;2022-12-07T13:34:32;67030;;;6.1;100
51417;BME280;50158;51.528;6.982;2022-12-07T13:36:44;67030;;;6.08;100
51417;BME280;50158;51.528;6.982;2022-12-07T13:41:12;67040;;;6.14;100
51417;BME280;50158;51.528;6.982;2022-12-07T13:44:41;67040;;;6.21;100
51417;BME280;50158;51.528;6.982;2022-12-07T13:46:04;67050;;;6.23;100
51417;BME280;50158;51.528;6.982;2022-12-07T13:48:35;67030;;;6.09;100
51417;BME280;50158;51.528;6.982;2022-12-07T13:51:02;67030;;;6.06;100
51417;BME280;50158;51.528;6.982;2022-12-07T13:53:29;67020;;;5.95;100
51417;BME280;50158;51.528;6.982;2022-12-07T13:55:58;67000;;;5.84;100
51417;BME280;50158;51.528;6.982;2022-12-07T13:58:26;66990;;;5.7;100
51417;BME280;50158;51.528;6.982;2022-12-07T14:00:54;66970;;;5.53;100
51417;BME280;50158;51.528;6.982;2022-12-07T14:03:25;66960;;;5.43;100
51417;BME280;50158;51.528;6.982;2022-12-07T14:06:03;66950;;;5.32;100
51417;BME280;50158;51.528;6.982;2022-12-07T14:08:22;66940;;;5.21;100
51417;BME280;50158;51.528;6.982;2022-12-07T14:10:56;66930;;;5.12;100
51417;BME280;50158;51.528;6.982;2022-12-07T14:13:32;66930;;;5.12;100
51417;BME280;50158;51.528;6.982;2022-12-07T14:15:43;66920;;;5.09;100
51417;BME280;50158;51.528;6.982;2022-12-07T14:18:24;66920;;;5.03;100
51417;BME280;50158;51.528;6.982;2022-12-07T14:20:40;66910;;;4.94;100
51417;BME280;50158;51.528;6.982;2022-12-07T14:23:24;66900;;;4.86;100
51417;BME280;50158;51.528;6.982;2022-12-07T14:25:45;66890;;;4.83;100
51417;BME280;50158;51.528;6.982;2022-12-07T14:28:09;66890;;;4.81;100
51417;BME280;50158;51.528;6.982;2022-12-07T14:30:33;66880;;;4.71;100
51417;BME280;50158;51.528;6.982;2022-12-07T14:33:03;66880;;;4.67;100
51417;BME280;50158;51.528;6.982;2022-12-07T14:35:30;66870;;;4.6;100
51417;BME280;50158;51.528;6.982;2022-12-07T14:37:58;66870;;;4.6;100
51417;BME280;50158;51.528;6.982;2022-12-07T14:40:27;66870;;;4.58;100
51417;BME280;50158;51.528;6.982;2022-12-07T14:42:56;66860;;;4.54;100
51417;BME280;50158;51.528;6.982;2022-12-07T14:47:18;66860;;;4.46;100
51417;BME280;50158;51.528;6.982;2022-12-07T14:49:46;66860;;;4.5;100
51417;BME280;50158;51.528;6.982;2022-12-07T14:52:17;66850;;;4.44;100
51417;BME280;50158;51.528;6.982;2022-12-07T14:54:43;66850;;;4.39;100
51417;BME280;50158;51.528;6.982;2022-12-07T14:57:11;66840;;;4.36;100
51417;BME280;50158;51.528;6.982;2022-12-07T14:59:40;66840;;;4.29;100
51417;BME280;50158;51.528;6.982;2022-12-07T15:02:09;66830;;;4.25;100
51417;BME280;50158;51.528;6.982;2022-12-07T15:04:36;66830;;;4.23;100
51417;BME280;50158;51.528;6.982;2022-12-07T15:07:05;66830;;;4.21;100
51417;BME280;50158;51.528;6.982;2022-12-07T15:09:33;66820;;;4.12;100
51417;BME280;50158;51.528;6.982;2022-12-07T15:12:01;66820;;;4.12;100
51417;BME280;50158;51.528;6.982;2022-12-07T15:14:29;66820;;;4.1;100
51417;BME280;50158;51.528;6.982;2022-12-07T15:16:57;66820;;;4.1;100